Time;durP1;ratioP1;P1;durP2;ratioP2;P2;SDS_P1;SDS_P2;PMS_P1;PMS_P2;Temp;Humidity;BMP_temperature;BMP_pressure;BME280_temperature;BME280_humidity;BME280_pressure;Samples;Min_cycle;Max_cycle;Signal;HPM_P1;HPM_P2
2023/11/19 00:01:05;;;;;;;4.53;3.80;;;;;;;10.12;100.00;98058.22;4165846;28;20652;-84
2023/11/19 00:03:08;;;;;;;4.63;3.70;;;;;;;10.13;100.00;98065.13;4187440;28;20636;-83
2023/11/19 00:05:12;;;;;;;5.00;4.20;;;;;;;10.14;100.00;98058.94;4184587;28;20635;-85
2023/11/19 00:07:16;;;;;;;4.40;3.93;;;;;;;10.14;100.00;98064.16;4185474;28;20635;-84
2023/11/19 00:09:22;;;;;;;5.07;3.83;;;;;;;10.19;100.00;98061.25;4182964;28;21016;-84
2023/11/19 00:11:25;;;;;;;4.30;3.67;;;;;;;10.23;100.00;98063.53;4170696;28;20675;-84
2023/11/19 00:13:28;;;;;;;4.60;4.03;;;;;;;10.28;100.00;98058.03;4171742;28;20628;-84
2023/11/19 00:15:31;;;;;;;4.63;3.20;;;;;;;10.28;100.00;98058.84;4185720;28;20732;-84
2023/11/19 00:17:35;;;;;;;4.40;3.70;;;;;;;10.28;100.00;98052.81;4169627;28;20202;-84
2023/11/19 00:19:37;;;;;;;4.73;3.30;;;;;;;10.29;100.00;98052.69;4158262;28;20649;-84
2023/11/19 00:21:41;;;;;;;3.80;3.10;;;;;;;10.31;100.00;98045.59;4155375;28;20653;-84
2023/11/19 00:23:44;;;;;;;5.47;3.73;;;;;;;10.31;100.00;98048.22;4169815;28;20630;-84
2023/11/19 00:25:48;;;;;;;7.30;3.60;;;;;;;10.34;100.00;98046.25;4172500;28;20633;-84
2023/11/19 00:27:53;;;;;;;4.53;3.53;;;;;;;10.38;100.00;98049.47;4178940;28;20210;-85
2023/11/19 00:29:56;;;;;;;6.60;3.47;;;;;;;10.39;100.00;98045.94;4173121;28;20647;-84
2023/11/19 00:31:59;;;;;;;4.67;4.00;;;;;;;10.42;100.00;98043.13;4156136;28;20681;-83
2023/11/19 00:34:03;;;;;;;5.43;4.40;;;;;;;10.45;100.00;98027.28;4184159;28;20709;-84
2023/11/19 00:36:07;;;;;;;6.33;4.07;;;;;;;10.46;100.00;98029.78;4154476;28;20725;-83
2023/11/19 00:38:10;;;;;;;4.60;3.80;;;;;;;10.49;100.00;98036.53;4176428;28;20715;-84
2023/11/19 00:40:15;;;;;;;3.60;2.90;;;;;;;10.51;100.00;98037.28;4155501;28;20685;-83
2023/11/19 00:42:20;;;;;;;3.80;2.90;;;;;;;10.51;100.00;98039.88;4186355;28;21052;-84
2023/11/19 00:44:24;;;;;;;4.30;2.90;;;;;;;10.55;100.00;98030.91;4165170;28;20615;-83
2023/11/19 00:46:28;;;;;;;4.20;3.03;;;;;;;10.57;100.00;98029.00;4171783;28;21120;-84
2023/11/19 00:48:31;;;;;;;4.10;3.00;;;;;;;10.61;100.00;98038.28;4167911;28;21276;-84
2023/11/19 00:50:34;;;;;;;3.67;2.67;;;;;;;10.64;100.00;98043.28;4174448;28;21079;-84
2023/11/19 00:52:39;;;;;;;4.60;2.90;;;;;;;10.66;100.00;98051.84;4160614;28;20684;-84
2023/11/19 00:54:42;;;;;;;4.23;2.90;;;;;;;10.69;100.00;98043.81;4168212;28;20671;-84
2023/11/19 00:56:46;;;;;;;4.00;2.87;;;;;;;10.71;100.00;98034.13;4169073;28;20608;-84
2023/11/19 00:58:50;;;;;;;4.93;2.80;;;;;;;10.73;100.00;98035.66;4173594;28;20617;-84
2023/11/19 01:00:53;;;;;;;4.10;2.43;;;;;;;10.76;100.00;98032.00;4160090;28;20629;-84
2023/11/19 01:02:57;;;;;;;4.13;3.03;;;;;;;10.78;100.00;98024.91;4170097;28;20686;-84
2023/11/19 01:05:00;;;;;;;3.80;2.53;;;;;;;10.78;100.00;98022.28;4170355;28;20636;-83
2023/11/19 01:07:04;;;;;;;6.03;3.17;;;;;;;10.78;100.00;98023.16;4172167;28;20639;-83
2023/11/19 01:09:08;;;;;;;3.60;2.80;;;;;;;10.79;100.00;98010.94;4157156;28;20633;-83
2023/11/19 01:11:21;;;;;;;4.47;3.20;;;;;;;10.80;100.00;98010.81;4161898;28;20711;-84
2023/11/19 01:13:25;;;;;;;3.60;2.83;;;;;;;10.84;100.00;98009.69;4170804;28;20643;-83
2023/11/19 01:15:30;;;;;;;3.60;2.30;;;;;;;10.87;100.00;98012.91;4172186;28;20628;-84
2023/11/19 01:17:32;;;;;;;3.30;2.40;;;;;;;10.87;100.00;98010.28;4172292;28;20676;-84
2023/11/19 01:19:35;;;;;;;3.37;2.33;;;;;;;10.90;100.00;98004.03;4169174;28;20631;-84
2023/11/19 01:21:38;;;;;;;3.73;2.30;;;;;;;10.91;100.00;98001.28;4156547;28;20668;-83
2023/11/19 01:23:43;;;;;;;2.97;2.20;;;;;;;10.94;100.00;98000.25;4161415;28;21208;-83
2023/11/19 01:25:49;;;;;;;2.87;2.03;;;;;;;10.96;100.00;97999.19;4174796;28;20640;-83
2023/11/19 01:27:52;;;;;;;3.40;2.07;;;;;;;10.98;100.00;97997.31;4184130;28;20624;-84
2023/11/19 01:29:55;;;;;;;2.77;1.70;;;;;;;11.00;100.00;97995.41;4180439;28;20624;-83
2023/11/19 01:32:00;;;;;;;3.77;2.00;;;;;;;11.06;100.00;97996.75;4174363;28;20672;-84
2023/11/19 01:34:02;;;;;;;2.80;2.10;;;;;;;11.09;100.00;97999.16;4156257;28;20672;-83
2023/11/19 01:36:07;;;;;;;4.07;2.20;;;;;;;11.08;100.00;97994.84;4176380;28;20667;-84
2023/11/19 01:38:10;;;;;;;2.60;1.80;;;;;;;11.10;100.00;98000.81;4183900;28;20648;-84
2023/11/19 01:40:15;;;;;;;3.10;2.03;;;;;;;11.14;100.00;98010.94;4164388;28;21269;-83
2023/11/19 01:42:18;;;;;;;3.83;2.33;;;;;;;11.17;100.00;98002.88;4169657;28;20652;-83
2023/11/19 01:44:22;;;;;;;2.67;1.73;;;;;;;11.17;100.00;98008.09;4158901;28;20648;-85
2023/11/19 01:46:26;;;;;;;3.50;2.00;;;;;;;11.19;100.00;98005.38;4175074;28;21176;-84
2023/11/19 01:48:32;;;;;;;3.00;2.47;;;;;;;11.15;100.00;98002.13;4171851;28;20632;-83
2023/11/19 01:50:36;;;;;;;5.13;2.03;;;;;;;11.11;100.00;97999.88;4188670;28;20643;-83
2023/11/19 01:52:38;;;;;;;3.43;2.00;;;;;;;11.05;100.00;97997.69;4181551;28;20634;-83
2023/11/19 01:54:42;;;;;;;3.70;2.27;;;;;;;11.04;100.00;97998.66;4152380;28;20636;-84
2023/11/19 01:56:45;;;;;;;3.63;2.37;;;;;;;11.04;100.00;97989.03;4184715;28;20982;-84
2023/11/19 01:58:49;;;;;;;2.60;1.80;;;;;;;11.10;100.00;97993.00;4172869;28;20660;-83
2023/11/19 02:00:53;;;;;;;2.50;1.97;;;;;;;11.12;100.00;97989.31;4160720;28;20619;-84
2023/11/19 02:02:57;;;;;;;4.00;2.53;;;;;;;11.14;100.00;97990.06;4186144;28;20639;-83
2023/11/19 02:05:01;;;;;;;3.23;2.13;;;;;;;11.17;100.00;97992.44;4182116;28;20640;-84
2023/11/19 02:07:05;;;;;;;3.47;2.00;;;;;;;11.21;100.00;97988.66;4172344;28;21371;-84
2023/11/19 02:09:09;;;;;;;3.07;1.90;;;;;;;11.24;100.00;97996.25;4170249;28;21217;-83
2023/11/19 02:11:13;;;;;;;2.70;1.80;;;;;;;11.27;100.00;98003.03;4155062;28;20764;-84
2023/11/19 02:13:18;;;;;;;3.47;1.90;;;;;;;11.29;100.00;98009.84;4157830;28;20622;-84
2023/11/19 02:15:24;;;;;;;2.97;1.77;;;;;;;11.29;100.00;98000.22;4174351;28;20636;-84
2023/11/19 02:17:28;;;;;;;2.70;2.00;;;;;;;11.31;100.00;97993.09;4171703;28;20625;-83
2023/11/19 02:19:32;;;;;;;2.30;1.67;;;;;;;11.34;100.00;97998.09;4172537;28;21205;-83
2023/11/19 02:21:37;;;;;;;2.90;1.80;;;;;;;11.36;100.00;97998.81;4155900;28;20640;-84
2023/11/19 02:23:41;;;;;;;2.77;2.00;;;;;;;11.38;100.00;97996.94;4158996;28;20633;-84
2023/11/19 02:25:49;;;;;;;2.80;1.80;;;;;;;11.40;100.00;97984.59;4155688;28;20629;-83
2023/11/19 02:27:58;;;;;;;4.90;1.90;;;;;;;11.41;100.00;97983.66;4160909;28;21252;-83
2023/11/19 02:30:03;;;;;;;2.87;1.83;;;;;;;11.42;100.00;97992.31;4186461;28;20631;-84
2023/11/19 02:32:09;;;;;;;3.40;2.13;;;;;;;11.41;100.00;97977.56;4155697;28;20681;-84
2023/11/19 02:34:12;;;;;;;2.83;1.97;;;;;;;11.43;100.00;97986.16;4160984;28;20728;-83
2023/11/19 02:36:17;;;;;;;2.97;2.13;;;;;;;11.43;100.00;97983.53;4172948;28;21013;-84
2023/11/19 02:38:21;;;;;;;3.20;2.17;;;;;;;11.45;100.00;97976.41;4156428;28;20625;-84
2023/11/19 02:40:25;;;;;;;3.50;1.90;;;;;;;11.47;100.00;97985.00;4168137;28;20724;-85
2023/11/19 02:42:29;;;;;;;3.80;2.20;;;;;;;11.47;100.00;97982.38;4165705;28;20630;-84
2023/11/19 02:44:34;;;;;;;3.60;2.33;;;;;;;11.49;100.00;97980.53;4158802;28;20645;-84
2023/11/19 02:46:38;;;;;;;2.73;1.93;;;;;;;11.50;100.00;97976.94;4169076;28;20633;-83
2023/11/19 02:48:43;;;;;;;3.57;1.90;;;;;;;11.51;100.00;97986.44;4181740;28;21098;-83
2023/11/19 02:50:45;;;;;;;3.53;2.27;;;;;;;11.52;100.00;97982.91;4167766;28;20628;-83
2023/11/19 02:52:49;;;;;;;3.20;2.33;;;;;;;11.52;100.00;97982.91;4166475;28;20676;-84
2023/11/19 02:54:53;;;;;;;3.83;2.40;;;;;;;11.51;100.00;97981.22;4183439;28;20647;-84
2023/11/19 02:56:59;;;;;;;4.07;3.13;;;;;;;11.47;100.00;97980.63;4168022;28;20674;-84
2023/11/19 02:59:08;;;;;;;4.90;3.90;;;;;;;11.46;100.00;97978.09;4181088;28;20637;-83
2023/11/19 03:01:23;;;;;;;4.60;3.73;;;;;;;11.46;100.00;97978.09;4184881;28;20982;-84
2023/11/19 03:03:30;;;;;;;5.67;4.10;;;;;;;11.45;100.00;97982.47;4184044;28;20706;-84
2023/11/19 03:05:40;;;;;;;5.40;4.07;;;;;;;11.46;100.00;97980.72;4181833;28;20680;-84
2023/11/19 03:07:45;;;;;;;4.17;3.50;;;;;;;11.43;100.00;97992.19;4172820;28;21063;-83
2023/11/19 03:09:49;;;;;;;4.90;4.13;;;;;;;11.43;100.00;97994.81;4172423;28;21005;-84
2023/11/19 03:11:53;;;;;;;6.97;4.57;;;;;;;11.42;100.00;97993.13;4173305;28;20668;-84
2023/11/19 03:13:56;;;;;;;6.43;4.93;;;;;;;11.41;100.00;97995.84;4183716;28;20663;-84
2023/11/19 03:16:00;;;;;;;6.07;5.00;;;;;;;11.38;100.00;97989.09;4172429;28;20679;-83
2023/11/19 03:18:04;;;;;;;5.10;4.50;;;;;;;11.38;100.00;97980.41;4155400;28;20720;-84
2023/11/19 03:20:10;;;;;;;5.40;4.43;;;;;;;11.37;100.00;97976.97;4171142;28;21213;-83
2023/11/19 03:22:14;;;;;;;4.40;3.90;;;;;;;11.37;100.00;97984.81;4166227;28;20633;-84
2023/11/19 03:24:17;;;;;;;6.30;5.00;;;;;;;11.37;100.00;97984.00;4151708;28;20637;-84
2023/11/19 03:26:22;;;;;;;5.13;4.37;;;;;;;11.37;100.00;97979.59;4169237;28;20644;-83
2023/11/19 03:28:25;;;;;;;6.13;4.30;;;;;;;11.38;100.00;97975.19;4174981;28;20682;-84
2023/11/19 03:30:29;;;;;;;4.20;3.80;;;;;;;11.38;100.00;97955.16;4160481;28;20637;-83
2023/11/19 03:32:36;;;;;;;6.80;4.93;;;;;;;11.39;100.00;97969.84;4156603;28;20661;-84
2023/11/19 03:34:41;;;;;;;6.70;4.30;;;;;;;11.37;100.00;97974.38;4173415;28;20633;-84
2023/11/19 03:36:45;;;;;;;4.07;3.03;;;;;;;11.37;100.00;97973.53;4173957;28;20633;-84
2023/11/19 03:38:49;;;;;;;2.97;2.30;;;;;;;11.37;100.00;97963.09;4159587;28;21550;-84
2023/11/19 03:40:53;;;;;;;2.47;1.90;;;;;;;11.40;100.00;97952.44;4159117;28;20634;-83
2023/11/19 03:42:57;;;;;;;2.57;1.63;;;;;;;11.42;100.00;97951.34;4184085;28;20636;-84
2023/11/19 03:45:00;;;;;;;2.03;1.43;;;;;;;11.45;100.00;97955.53;4187268;28;21251;-83
2023/11/19 03:47:04;;;;;;;3.30;1.70;;;;;;;11.46;100.00;97952.81;4169282;28;20640;-83
2023/11/19 03:49:08;;;;;;;2.77;1.80;;;;;;;11.48;100.00;97947.50;4182199;28;20636;-83
2023/11/19 03:51:15;;;;;;;2.77;1.80;;;;;;;11.49;100.00;97943.97;4156258;28;21214;-83
2023/11/19 03:53:19;;;;;;;3.53;2.00;;;;;;;11.50;100.00;97949.06;4169186;28;21174;-83
2023/11/19 03:55:22;;;;;;;3.43;1.97;;;;;;;11.50;100.00;97946.44;4170077;28;20632;-84
2023/11/19 03:57:26;;;;;;;4.07;2.23;;;;;;;11.51;100.00;97949.88;4169452;28;21202;-84
2023/11/19 03:59:29;;;;;;;2.80;1.80;;;;;;;11.54;100.00;97944.44;4163865;28;20702;-84
2023/11/19 04:01:33;;;;;;;3.20;2.10;;;;;;;11.53;100.00;97933.16;4169327;28;20633;-84
2023/11/19 04:03:37;;;;;;;2.87;2.40;;;;;;;11.54;100.00;97928.78;4170328;28;20661;-83
2023/11/19 04:05:54;;;;;;;3.30;1.97;;;;;;;11.52;100.00;97923.66;4167697;28;20778;-84
2023/11/19 04:07:59;;;;;;;2.83;2.00;;;;;;;11.53;100.00;97927.09;4179681;28;20636;-84
2023/11/19 04:10:03;;;;;;;3.50;2.20;;;;;;;11.53;100.00;97922.72;4159594;28;20625;-83
2023/11/19 04:12:10;;;;;;;2.60;1.87;;;;;;;11.56;100.00;97932.09;4160947;28;20673;-83
2023/11/19 04:14:14;;;;;;;2.63;2.00;;;;;;;11.57;100.00;97931.97;4158837;28;20637;-84
2023/11/19 04:16:17;;;;;;;2.93;1.77;;;;;;;11.58;100.00;97930.22;4158375;28;21312;-83
2023/11/19 04:18:21;;;;;;;2.23;1.73;;;;;;;11.58;100.00;97940.66;4176950;28;21263;-83
2023/11/19 04:20:25;;;;;;;2.57;1.80;;;;;;;11.61;100.00;97943.03;4178713;28;20615;-83
2023/11/19 04:22:32;;;;;;;2.40;1.53;;;;;;;11.64;100.00;97937.59;4162186;28;20721;-84
2023/11/19 04:24:36;;;;;;;1.87;1.37;;;;;;;11.67;100.00;97934.75;4177026;28;20629;-84
2023/11/19 04:26:42;;;;;;;3.13;1.57;;;;;;;11.68;100.00;97932.03;4176333;28;20628;-84
2023/11/19 04:28:49;;;;;;;2.80;1.50;;;;;;;11.70;100.00;97937.97;4178391;28;20648;-83
2023/11/19 04:30:54;;;;;;;2.73;1.67;;;;;;;11.72;100.00;97938.66;4189540;28;20661;-83
2023/11/19 04:32:58;;;;;;;2.10;1.50;;;;;;;11.76;100.00;97940.94;4188590;28;20674;-84
2023/11/19 04:35:01;;;;;;;2.80;1.67;;;;;;;11.78;100.00;97925.97;4161249;28;20709;-84
2023/11/19 04:37:05;;;;;;;2.73;1.50;;;;;;;11.83;100.00;97925.63;4192413;28;20639;-83
2023/11/19 04:39:12;;;;;;;2.10;1.30;;;;;;;11.87;100.00;97927.06;4160181;28;21002;-84
2023/11/19 04:41:17;;;;;;;2.33;1.37;;;;;;;11.89;100.00;97923.38;4186485;28;20695;-83
2023/11/19 04:43:21;;;;;;;1.87;1.23;;;;;;;11.90;100.00;97925.03;4173563;28;20620;-84
2023/11/19 04:45:25;;;;;;;2.77;1.10;;;;;;;11.92;100.00;97933.59;4189642;28;20705;-83
2023/11/19 04:47:29;;;;;;;2.97;1.10;;;;;;;11.96;100.00;97934.19;4157750;28;21249;-84
2023/11/19 04:49:33;;;;;;;1.70;1.00;;;;;;;11.98;100.00;97935.75;4170092;28;20661;-84
2023/11/19 04:51:40;;;;;;;4.33;1.50;;;;;;;11.97;100.00;97939.31;4158287;28;21274;-85
2023/11/19 04:53:44;;;;;;;1.57;0.97;;;;;;;11.97;100.00;97939.31;4173495;28;20687;-84
2023/11/19 04:55:48;;;;;;;1.70;1.00;;;;;;;11.95;100.00;97933.38;4161391;28;20670;-84
2023/11/19 04:57:55;;;;;;;2.00;1.10;;;;;;;11.93;100.00;97940.47;4172735;28;20629;-84
2023/11/19 04:59:58;;;;;;;2.00;1.50;;;;;;;11.95;100.00;97946.44;4173568;28;21233;-84
2023/11/19 05:02:01;;;;;;;2.50;1.50;;;;;;;11.93;100.00;97947.50;4176302;28;20726;-84
2023/11/19 05:04:03;;;;;;;2.43;1.30;;;;;;;11.91;100.00;97938.94;4176143;28;24583;-84
2023/11/19 05:06:08;;;;;;;2.23;1.43;;;;;;;11.92;100.00;97951.91;4164248;28;20640;-84
2023/11/19 05:08:12;;;;;;;2.50;1.80;;;;;;;11.97;100.00;97939.31;4178511;28;20660;-84
2023/11/19 05:10:15;;;;;;;4.73;1.80;;;;;;;11.99;100.00;97928.75;4188277;28;20714;-84
2023/11/19 05:12:17;;;;;;;2.80;1.53;;;;;;;12.00;100.00;97941.69;4186918;28;20654;-84
2023/11/19 05:14:24;;;;;;;3.70;2.10;;;;;;;12.01;100.00;97947.75;4173952;28;20682;-84
2023/11/19 05:16:27;;;;;;;1.80;1.10;;;;;;;11.97;100.00;97941.91;4186294;28;21366;-84
2023/11/19 05:18:30;;;;;;;1.90;1.23;;;;;;;11.96;100.00;97934.19;4176205;28;20636;-84
2023/11/19 05:20:33;;;;;;;1.80;1.10;;;;;;;11.96;100.00;97939.41;4177578;28;20719;-84
2023/11/19 05:22:37;;;;;;;2.23;1.40;;;;;;;12.01;100.00;97940.75;4172249;28;20613;-84
2023/11/19 05:24:40;;;;;;;5.00;2.07;;;;;;;12.05;100.00;97957.84;4187350;28;20682;-84
2023/11/19 05:26:44;;;;;;;4.93;1.57;;;;;;;12.05;100.00;97944.78;4159054;28;20710;-85
2023/11/19 05:28:47;;;;;;;2.20;1.30;;;;;;;12.07;100.00;97942.03;4162745;28;21187;-85
2023/11/19 05:30:52;;;;;;;3.53;1.40;;;;;;;12.09;100.00;97941.00;4159158;28;20669;-88
2023/11/19 05:32:54;;;;;;;2.10;1.37;;;;;;;12.10;100.00;97940.00;4175426;28;20641;-85
2023/11/19 05:34:57;;;;;;;2.57;1.43;;;;;;;12.12;100.00;97930.28;4164104;28;20641;-85
2023/11/19 05:37:01;;;;;;;2.47;1.63;;;;;;;12.13;100.00;97929.31;4171864;28;20632;-84
2023/11/19 05:39:04;;;;;;;2.13;1.40;;;;;;;12.14;100.00;97941.47;4186564;28;20711;-85
2023/11/19 05:41:08;;;;;;;2.50;1.23;;;;;;;12.14;100.00;97935.41;4176507;28;21024;-84
2023/11/19 05:43:11;;;;;;;1.93;0.90;;;;;;;12.14;100.00;97946.69;4174798;28;20651;-84
2023/11/19 05:45:15;;;;;;;1.67;0.87;;;;;;;12.18;100.00;97958.59;4157658;28;20676;-85
2023/11/19 05:47:19;;;;;;;2.90;1.50;;;;;;;12.21;100.00;97947.03;4174459;28;20633;-85
2023/11/19 05:49:22;;;;;;;5.23;3.33;;;;;;;12.18;100.00;97947.28;4182549;28;20727;-84
2023/11/19 05:51:26;;;;;;;4.97;4.40;;;;;;;12.20;100.00;97945.41;4158890;28;20657;-85
2023/11/19 05:53:29;;;;;;;4.83;4.20;;;;;;;12.22;100.00;97941.69;4186605;28;20690;-86
2023/11/19 05:55:34;;;;;;;6.10;5.50;;;;;;;12.23;100.00;97935.53;4159486;28;20625;-84
2023/11/19 05:57:37;;;;;;;4.33;3.90;;;;;;;12.21;100.00;97950.50;4185378;28;20623;-84
2023/11/19 05:59:49;;;;;;;5.50;3.70;;;;;;;12.15;100.00;97942.28;4184556;28;20639;-85
2023/11/19 06:01:52;;;;;;;5.40;2.67;;;;;;;12.12;100.00;97952.97;4173539;28;21029;-83
2023/11/19 06:03:57;;;;;;;4.03;3.20;;;;;;;12.16;100.00;97950.00;4188142;28;20727;-84
2023/11/19 06:06:00;;;;;;;3.93;2.83;;;;;;;12.20;100.00;97950.63;4168110;28;20670;-84
2023/11/19 06:08:04;;;;;;;3.70;3.10;;;;;;;12.20;100.00;97946.22;4168004;28;20624;-85
2023/11/19 06:10:09;;;;;;;4.90;3.03;;;;;;;12.22;100.00;97946.09;4166664;28;20645;-84
2023/11/19 06:12:13;;;;;;;5.37;2.87;;;;;;;12.23;100.00;97951.22;4173115;28;20625;-84
2023/11/19 06:14:17;;;;;;;4.23;2.93;;;;;;;12.23;100.00;97943.38;4187997;28;20663;-83
2023/11/19 06:16:20;;;;;;;4.30;2.80;;;;;;;12.24;100.00;97943.25;4158495;28;20642;-84
2023/11/19 06:18:23;;;;;;;2.80;2.03;;;;;;;12.24;100.00;97940.63;4171087;28;21232;-84
2023/11/19 06:20:31;;;;;;;2.20;1.53;;;;;;;12.29;100.00;97942.91;4174979;28;20639;-84
2023/11/19 06:22:45;;;;;;;1.90;0.90;;;;;;;12.32;100.00;97945.28;4175514;28;20686;-85
2023/11/19 06:24:49;;;;;;;2.27;1.30;;;;;;;12.36;100.00;97947.53;4173003;28;20640;-84
2023/11/19 06:26:51;;;;;;;4.50;3.90;;;;;;;12.39;100.00;97941.25;4184666;28;21195;-83
2023/11/19 06:28:54;;;;;;;11.03;9.93;;;;;;;12.37;100.00;97941.34;4172213;28;20719;-83
2023/11/19 06:30:58;;;;;;;9.00;8.10;;;;;;;12.37;100.00;97948.34;4185258;28;20650;-84
2023/11/19 06:33:01;;;;;;;12.27;9.63;;;;;;;12.37;100.00;97953.59;4171124;28;20635;-84
2023/11/19 06:35:05;;;;;;;12.80;11.50;;;;;;;12.37;100.00;97943.13;4175447;28;20632;-84
2023/11/19 06:37:10;;;;;;;21.77;19.37;;;;;;;12.35;100.00;97951.09;4168415;28;20647;-85
2023/11/19 06:39:14;;;;;;;17.70;16.00;;;;;;;12.37;100.00;97946.59;4185843;28;20668;-84
2023/11/19 06:41:17;;;;;;;5.67;5.07;;;;;;;12.40;100.00;97950.72;4175872;28;20659;-84
2023/11/19 06:43:20;;;;;;;6.87;5.43;;;;;;;12.36;100.00;97947.53;4174707;28;20629;-84
2023/11/19 06:45:23;;;;;;;5.80;4.50;;;;;;;12.35;100.00;97953.69;4161687;28;20680;-84
2023/11/19 06:47:27;;;;;;;5.53;4.33;;;;;;;12.32;100.00;97960.97;4185089;28;20635;-84
2023/11/19 06:49:31;;;;;;;6.50;4.87;;;;;;;12.32;100.00;97956.56;4185544;28;20633;-85
2023/11/19 06:51:34;;;;;;;8.50;6.87;;;;;;;12.32;100.00;97955.72;4169956;28;20960;-84
2023/11/19 06:53:40;;;;;;;5.70;4.83;;;;;;;12.38;100.00;97955.25;4172100;28;20656;-84
2023/11/19 06:55:44;;;;;;;4.97;3.60;;;;;;;12.42;100.00;97961.94;4159268;28;20634;-84
2023/11/19 06:57:46;;;;;;;5.77;3.70;;;;;;;12.43;100.00;97956.56;4183731;28;20663;-84
2023/11/19 06:59:49;;;;;;;4.60;3.70;;;;;;;12.41;100.00;97958.47;4172302;28;21238;-84
2023/11/19 07:01:52;;;;;;;16.00;10.40;;;;;;;12.41;100.00;97965.47;4169298;28;20645;-84
2023/11/19 07:03:57;;;;;;;41.83;23.83;;;;;;;12.41;100.00;97953.22;4164265;28;21062;-84
2023/11/19 07:06:01;;;;;;;32.73;21.73;;;;;;;12.37;100.00;97949.22;4189770;28;20723;-84
2023/11/19 07:08:05;;;;;;;9.83;6.40;;;;;;;12.40;100.00;97955.97;4168644;28;20636;-84
2023/11/19 07:10:09;;;;;;;11.70;7.07;;;;;;;12.42;100.00;97962.75;4166976;28;20675;-84
2023/11/19 07:12:14;;;;;;;11.67;5.90;;;;;;;12.43;100.00;97963.56;4184591;28;20625;-84
2023/11/19 07:14:17;;;;;;;9.07;5.47;;;;;;;12.47;100.00;97965.00;4184351;28;20660;-84
2023/11/19 07:16:21;;;;;;;4.70;3.83;;;;;;;12.50;100.00;97970.81;4167255;28;20621;-83
2023/11/19 07:18:26;;;;;;;3.27;2.50;;;;;;;12.52;100.00;97973.31;4151961;28;21002;-84
2023/11/19 07:20:31;;;;;;;5.07;3.40;;;;;;;12.53;100.00;97975.81;4165924;28;20625;-84
2023/11/19 07:22:34;;;;;;;3.03;1.63;;;;;;;12.54;100.00;97976.63;4178622;28;20637;-84
2023/11/19 07:24:40;;;;;;;3.50;1.40;;;;;;;12.56;100.00;97991.28;4184152;28;20671;-84
2023/11/19 07:26:47;;;;;;;2.60;1.73;;;;;;;12.59;100.00;97990.22;4184098;28;21046;-84
2023/11/19 07:28:49;;;;;;;2.60;1.70;;;;;;;12.62;100.00;97998.66;4183654;28;20822;-84
2023/11/19 07:30:52;;;;;;;1.90;1.17;;;;;;;12.64;100.00;98012.44;4169499;28;20692;-85
2023/11/19 07:32:56;;;;;;;3.70;1.27;;;;;;;12.67;100.00;98019.22;4184906;28;20632;-85
2023/11/19 07:34:59;;;;;;;9.20;6.50;;;;;;;12.69;100.00;98007.69;4156472;28;20646;-85
2023/11/19 07:37:19;;;;;;;6.33;4.40;;;;;;;12.72;100.00;98010.91;4157983;28;20644;-85
2023/11/19 07:39:21;;;;;;;3.07;2.17;;;;;;;12.73;100.00;98015.19;4158072;28;20622;-84
2023/11/19 07:41:25;;;;;;;3.30;2.40;;;;;;;12.76;100.00;98009.72;4169493;28;20630;-85
2023/11/19 07:43:29;;;;;;;3.80;2.20;;;;;;;12.79;100.00;98012.09;4168754;28;21296;-85
2023/11/19 07:45:34;;;;;;;2.40;1.47;;;;;;;12.78;100.00;98010.41;4182163;28;21235;-85
2023/11/19 07:47:38;;;;;;;2.13;1.10;;;;;;;12.77;100.00;98010.53;4169411;28;20612;-84
2023/11/19 07:49:43;;;;;;;1.93;1.10;;;;;;;12.80;100.00;98016.34;4173060;28;20634;-85
2023/11/19 07:51:48;;;;;;;2.03;1.10;;;;;;;12.85;100.00;98013.41;4167637;28;20634;-85
2023/11/19 07:53:50;;;;;;;4.90;3.20;;;;;;;12.88;100.00;98007.94;4174208;28;20721;-84
2023/11/19 07:55:53;;;;;;;3.30;2.10;;;;;;;12.90;100.00;98000.78;4166245;28;20718;-84
2023/11/19 07:57:57;;;;;;;3.53;1.20;;;;;;;12.91;100.00;98007.69;4169704;28;21203;-84
2023/11/19 08:00:02;;;;;;;2.93;1.10;;;;;;;12.94;100.00;97997.81;4170602;28;21034;-84
2023/11/19 08:02:14;;;;;;;2.20;1.00;;;;;;;12.98;100.00;98003.66;4185120;28;20644;-84
2023/11/19 08:04:18;;;;;;;2.13;1.00;;;;;;;13.00;100.00;98004.34;4174189;28;20621;-85
2023/11/19 08:06:21;;;;;;;1.70;1.00;;;;;;;13.01;100.00;97999.00;4170171;28;20642;-84
2023/11/19 08:08:25;;;;;;;2.17;1.07;;;;;;;13.04;100.00;98008.41;4151757;28;20700;-84
2023/11/19 08:10:29;;;;;;;4.47;2.87;;;;;;;13.05;100.00;98010.91;4155003;28;20722;-83
2023/11/19 08:12:35;;;;;;;4.33;2.77;;;;;;;13.07;100.00;98008.97;4183581;28;20659;-84
2023/11/19 08:14:38;;;;;;;3.77;2.10;;;;;;;13.09;100.00;98001.00;4151371;28;21227;-82
2023/11/19 08:16:43;;;;;;;3.47;2.00;;;;;;;13.09;100.00;98009.69;4178997;28;20620;-83
2023/11/19 08:18:46;;;;;;;2.17;1.20;;;;;;;13.10;100.00;98008.75;4168848;28;20693;-84
2023/11/19 08:20:52;;;;;;;1.70;0.90;;;;;;;13.08;100.00;98000.19;4179036;28;20645;-84
2023/11/19 08:22:55;;;;;;;1.63;0.80;;;;;;;13.08;100.00;98005.44;4184169;28;20635;-82
2023/11/19 08:24:59;;;;;;;2.10;0.83;;;;;;;13.11;100.00;98005.19;4179901;28;20689;-85
2023/11/19 08:27:01;;;;;;;1.73;0.90;;;;;;;13.11;100.00;98010.41;4153528;28;21078;-83
2023/11/19 08:29:06;;;;;;;1.93;0.90;;;;;;;13.10;100.00;98006.13;4181282;28;20739;-85
2023/11/19 08:31:10;;;;;;;2.27;0.87;;;;;;;13.13;100.00;98000.66;4184118;28;20656;-85
2023/11/19 08:33:15;;;;;;;7.03;1.63;;;;;;;13.13;100.00;97998.03;4167863;28;21288;-90
2023/11/19 08:35:18;;;;;;;2.80;1.80;;;;;;;13.15;100.00;98001.34;4157971;28;20659;-88
2023/11/19 08:37:21;;;;;;;4.40;2.57;;;;;;;13.15;100.00;98003.97;4173713;28;20631;-87
2023/11/19 08:39:27;;;;;;;1.70;0.80;;;;;;;13.18;100.00;98006.34;4168854;28;21186;-86
2023/11/19 08:41:30;;;;;;;1.70;0.90;;;;;;;13.18;100.00;98000.28;4169160;28;20637;-86
2023/11/19 08:43:34;;;;;;;1.60;0.80;;;;;;;13.24;100.00;98008.47;4171546;28;20634;-85
2023/11/19 08:45:36;;;;;;;1.43;0.70;;;;;;;13.28;100.00;98009.91;4188447;28;20617;-89
2023/11/19 08:47:40;;;;;;;1.67;0.87;;;;;;;13.31;100.00;98007.84;4181194;28;20664;-87
2023/11/19 08:49:44;;;;;;;6.87;1.00;;;;;;;13.36;100.00;98015.34;4184854;28;20620;-88
2023/11/19 08:51:47;;;;;;;1.80;0.83;;;;;;;13.41;100.00;98018.41;4181457;28;20695;-86
2023/11/19 08:53:51;;;;;;;2.20;0.90;;;;;;;13.44;100.00;98019.03;4155892;28;20659;-86
2023/11/19 08:55:54;;;;;;;3.43;1.90;;;;;;;13.43;100.00;98034.88;4172210;28;20664;-89
2023/11/19 08:57:58;;;;;;;3.73;2.13;;;;;;;13.42;100.00;98035.81;4190142;28;20659;-88
2023/11/19 09:00:00;;;;;;;2.90;2.00;;;;;;;13.42;100.00;98035.81;4155811;28;20630;-88
2023/11/19 09:02:04;;;;;;;6.10;2.57;;;;;;;13.45;100.00;98046.88;4173338;28;20648;-88
2023/11/19 09:04:06;;;;;;;2.90;2.17;;;;;;;13.47;100.00;98049.38;4170122;28;21306;-88
2023/11/19 09:06:12;;;;;;;2.53;1.80;;;;;;;13.45;100.00;98057.34;4175150;28;21268;-88
2023/11/19 09:08:15;;;;;;;2.83;1.60;;;;;;;13.46;100.00;98059.03;4156013;28;20707;-87
2023/11/19 09:10:18;;;;;;;2.87;1.60;;;;;;;13.47;100.00;98054.59;4175006;28;20723;-86
2023/11/19 09:12:21;;;;;;;6.63;5.17;;;;;;;13.43;100.00;98048.78;4159644;28;20629;-85
2023/11/19 09:14:25;;;;;;;5.80;3.60;;;;;;;13.45;100.00;98049.47;4182682;28;20690;-85
2023/11/19 09:16:29;;;;;;;13.00;7.80;;;;;;;13.50;100.00;98057.81;4170752;28;21243;-86
2023/11/19 09:18:33;;;;;;;10.37;6.67;;;;;;;13.54;100.00;98061.03;4184575;28;21284;-87
2023/11/19 09:20:38;;;;;;;10.30;7.03;;;;;;;13.57;100.00;98055.53;4153994;28;20645;-87
2023/11/19 09:22:43;;;;;;;9.90;5.90;;;;;;;13.60;100.00;98060.53;4186192;28;20652;-87
2023/11/19 09:24:48;;;;;;;7.60;6.50;;;;;;;13.62;100.00;98063.84;4156560;28;20679;-88
2023/11/19 09:26:51;;;;;;;6.50;5.07;;;;;;;13.66;100.00;98060.84;4172791;28;20675;-86
2023/11/19 09:28:54;;;;;;;10.80;9.80;;;;;;;13.69;100.00;98066.69;4171689;28;20637;-85
2023/11/19 09:30:57;;;;;;;8.50;7.27;;;;;;;13.72;100.00;98066.44;4177724;28;20726;-86
2023/11/19 09:33:00;;;;;;;18.43;11.33;;;;;;;13.75;100.00;98070.59;4157901;28;20649;-86
2023/11/19 09:35:04;;;;;;;27.90;15.43;;;;;;;13.77;100.00;98087.88;4167481;28;20683;-88
2023/11/19 09:37:07;;;;;;;28.70;15.70;;;;;;;13.83;100.00;98078.66;4172017;28;20625;-87